Time;durP1;ratioP1;P1;durP2;ratioP2;P2;SDS_P1;SDS_P2;PMS_P1;PMS_P2;Temp;Humidity;BMP_temperature;BMP_pressure;BME280_temperature;BME280_humidity;BME280_pressure;Samples;Min_cycle;Max_cycle;Signal;HPM_P1;HPM_P2
2021/12/03 00:01:29;;;;;;;23.75;10.60;;;2.30;99.90;;;;;;5076051;28;20417;-63
2021/12/03 00:03:55;;;;;;;24.73;10.43;;;2.30;99.90;;;;;;5059343;28;20300;-62
2021/12/03 00:06:21;;;;;;;26.95;10.40;;;2.30;99.90;;;;;;5059167;28;20044;-63
2021/12/03 00:08:47;;;;;;;27.27;11.25;;;2.20;99.90;;;;;;5076643;28;20040;-64
2021/12/03 00:11:14;;;;;;;24.50;9.90;;;2.20;99.90;;;;;;5076670;28;20182;-63
2021/12/03 00:13:40;;;;;;;31.48;10.15;;;2.20;99.90;;;;;;5077059;28;20040;-63
2021/12/03 00:16:06;;;;;;;26.90;9.75;;;2.10;99.90;;;;;;5076238;28;20052;-63
2021/12/03 00:18:33;;;;;;;30.30;9.30;;;2.10;99.90;;;;;;5075748;28;20392;-63
2021/12/03 00:21:03;;;;;;;24.95;9.85;;;2.10;99.90;;;;;;5076583;28;20025;-63
2021/12/03 00:23:29;;;;;;;23.00;9.30;;;2.10;99.90;;;;;;5059082;28;20051;-63
2021/12/03 00:25:58;;;;;;;29.48;8.93;;;2.10;99.90;;;;;;5076537;28;20392;-63
2021/12/03 00:28:24;;;;;;;20.05;7.85;;;2.00;99.90;;;;;;5076566;28;20308;-63
2021/12/03 00:30:50;;;;;;;19.58;7.40;;;2.10;99.90;;;;;;5076464;28;20033;-63
2021/12/03 00:33:16;;;;;;;17.27;6.88;;;2.20;99.90;;;;;;5076737;28;20070;-62
2021/12/03 00:35:41;;;;;;;19.27;6.32;;;2.10;99.90;;;;;;5076133;28;20032;-63
2021/12/03 00:38:07;;;;;;;16.83;6.82;;;2.20;99.90;;;;;;5080188;28;20293;-63
2021/12/03 00:40:37;;;;;;;15.57;6.13;;;2.20;99.90;;;;;;5079203;28;20063;-63
2021/12/03 00:43:04;;;;;;;17.45;6.30;;;2.20;99.90;;;;;;5080419;28;20036;-63
2021/12/03 00:45:31;;;;;;;17.35;6.53;;;2.20;99.90;;;;;;5080206;28;20043;-63
2021/12/03 00:47:57;;;;;;;15.23;6.20;;;2.10;99.90;;;;;;5080245;28;20025;-63
2021/12/03 00:50:25;;;;;;;16.80;6.22;;;2.20;99.90;;;;;;5080439;28;20047;-63
2021/12/03 00:52:52;;;;;;;19.52;6.93;;;2.20;99.90;;;;;;5080328;28;20307;-62
2021/12/03 00:55:19;;;;;;;12.32;6.03;;;2.10;99.90;;;;;;5080208;28;20020;-62
2021/12/03 00:57:44;;;;;;;12.55;6.82;;;2.10;99.90;;;;;;5080305;28;20125;-63
2021/12/03 01:00:24;;;;;;;18.60;7.22;;;2.10;99.90;;;;;;5080183;28;20436;-63
2021/12/03 01:02:52;;;;;;;17.88;7.05;;;2.10;99.90;;;;;;5079613;28;20115;-62
2021/12/03 01:05:18;;;;;;;18.88;7.03;;;2.10;99.90;;;;;;5080003;28;20032;-63
2021/12/03 01:07:44;;;;;;;15.88;7.18;;;2.00;99.90;;;;;;5080067;28;20029;-63
2021/12/03 01:10:10;;;;;;;13.60;6.95;;;2.00;99.90;;;;;;5079978;28;20131;-62
2021/12/03 01:12:37;;;;;;;14.70;7.60;;;2.00;99.90;;;;;;5079920;28;20342;-63
2021/12/03 01:15:05;;;;;;;15.35;7.63;;;2.00;99.90;;;;;;5079614;28;20139;-63
2021/12/03 01:17:31;;;;;;;16.67;7.50;;;2.00;99.90;;;;;;5080497;28;20054;-62
2021/12/03 01:19:58;;;;;;;12.15;6.95;;;2.00;99.90;;;;;;5062409;28;20032;-62
2021/12/03 01:22:24;;;;;;;18.80;8.57;;;2.10;99.90;;;;;;5079812;28;20039;-63
2021/12/03 01:24:49;;;;;;;17.05;8.15;;;2.10;99.90;;;;;;5079049;28;20033;-62
2021/12/03 01:27:15;;;;;;;19.27;8.68;;;2.10;99.90;;;;;;5079751;28;20029;-62
2021/12/03 01:29:41;;;;;;;19.10;8.25;;;2.20;99.90;;;;;;5078858;28;20036;-62
2021/12/03 01:32:07;;;;;;;24.23;9.27;;;2.20;99.90;;;;;;5079860;28;20033;-62
2021/12/03 01:34:33;;;;;;;17.08;8.63;;;2.30;99.90;;;;;;5079526;28;20044;-63
2021/12/03 01:36:59;;;;;;;14.98;8.27;;;2.20;99.90;;;;;;5079741;28;20402;-63
2021/12/03 01:39:25;;;;;;;23.08;8.38;;;2.10;99.90;;;;;;5080000;28;20383;-62
2021/12/03 01:41:50;;;;;;;20.48;9.10;;;2.20;99.90;;;;;;5079522;28;20066;-63
2021/12/03 01:44:16;;;;;;;15.52;8.52;;;2.10;99.90;;;;;;5079968;28;20115;-62
2021/12/03 01:46:42;;;;;;;14.60;7.47;;;2.10;99.90;;;;;;5078764;28;20332;-62
2021/12/03 01:49:11;;;;;;;14.07;7.82;;;2.00;99.90;;;;;;5078833;28;20303;-62
2021/12/03 01:51:37;;;;;;;11.50;7.60;;;2.00;99.90;;;;;;5079373;28;20037;-62
2021/12/03 01:54:03;;;;;;;12.45;8.38;;;2.00;99.90;;;;;;5079273;28;20354;-63
2021/12/03 01:56:29;;;;;;;13.48;8.05;;;2.00;99.90;;;;;;5079154;28;20037;-62
2021/12/03 01:58:55;;;;;;;22.38;8.25;;;2.10;99.90;;;;;;5079203;28;20052;-63
2021/12/03 02:01:25;;;;;;;16.85;7.78;;;2.20;99.90;;;;;;5079114;28;20042;-63
2021/12/03 02:03:53;;;;;;;22.33;8.30;;;2.20;99.90;;;;;;5078329;28;20384;-63
2021/12/03 02:06:21;;;;;;;19.48;8.35;;;2.20;99.90;;;;;;5078978;28;20379;-63
2021/12/03 02:08:47;;;;;;;18.42;8.13;;;2.20;99.90;;;;;;5078991;28;20339;-63
2021/12/03 02:11:15;;;;;;;16.92;7.50;;;2.30;99.90;;;;;;5078914;28;20032;-63
2021/12/03 02:13:41;;;;;;;14.70;7.57;;;2.30;99.90;;;;;;5078849;28;20036;-63
2021/12/03 02:16:08;;;;;;;19.27;8.35;;;2.30;99.90;;;;;;5078556;28;20078;-63
2021/12/03 02:18:34;;;;;;;16.63;8.25;;;2.30;99.90;;;;;;5079439;28;20333;-63
2021/12/03 02:21:03;;;;;;;23.90;7.93;;;2.20;99.90;;;;;;5078689;28;20039;-62
2021/12/03 02:23:29;;;;;;;20.92;8.05;;;2.20;99.90;;;;;;5078674;28;20055;-63
2021/12/03 02:25:56;;;;;;;17.35;8.10;;;2.10;99.90;;;;;;5078741;28;20033;-63
2021/12/03 02:28:25;;;;;;;15.10;7.50;;;2.00;99.90;;;;;;5077811;28;20036;-64
2021/12/03 02:30:53;;;;;;;19.92;8.70;;;2.00;99.90;;;;;;5078499;28;20064;-63
2021/12/03 02:33:18;;;;;;;21.20;8.45;;;1.90;99.90;;;;;;5078457;28;20146;-63
2021/12/03 02:35:45;;;;;;;18.27;8.82;;;2.00;99.90;;;;;;5077554;28;20052;-63
2021/12/03 02:38:15;;;;;;;19.58;8.73;;;2.00;99.90;;;;;;5079021;28;20047;-63
2021/12/03 02:40:41;;;;;;;17.95;8.98;;;2.00;99.90;;;;;;5078390;28;20020;-63
2021/12/03 02:43:07;;;;;;;21.10;8.50;;;2.00;99.90;;;;;;5078510;28;20468;-63
2021/12/03 02:45:34;;;;;;;17.00;9.13;;;2.00;99.90;;;;;;5078464;28;20107;-63
2021/12/03 02:48:00;;;;;;;14.00;8.50;;;2.00;99.90;;;;;;5078195;28;20043;-63
2021/12/03 02:50:26;;;;;;;18.25;8.95;;;2.00;99.90;;;;;;5078127;28;20125;-63
2021/12/03 02:52:53;;;;;;;18.52;9.15;;;2.00;99.90;;;;;;5078099;28;20295;-63
2021/12/03 02:55:20;;;;;;;17.10;9.18;;;2.10;99.90;;;;;;5077972;28;20280;-63
2021/12/03 02:57:46;;;;;;;21.55;9.18;;;2.10;99.90;;;;;;5078051;28;20120;-63
2021/12/03 03:00:15;;;;;;;19.65;9.55;;;2.20;99.90;;;;;;5077033;28;20119;-63
2021/12/03 03:02:41;;;;;;;18.90;8.48;;;2.20;99.90;;;;;;5077087;28;20307;-63
2021/12/03 03:05:10;;;;;;;20.33;9.13;;;2.20;99.90;;;;;;5077819;28;20021;-63
2021/12/03 03:07:37;;;;;;;17.08;8.90;;;2.10;99.90;;;;;;5078065;28;20056;-62
2021/12/03 03:10:08;;;;;;;15.82;8.55;;;2.10;99.90;;;;;;5077759;28;20067;-63
2021/12/03 03:12:34;;;;;;;22.10;9.27;;;2.10;99.90;;;;;;5077732;28;20391;-63
2021/12/03 03:15:00;;;;;;;19.95;8.95;;;2.20;99.90;;;;;;5077336;28;20292;-63
2021/12/03 03:17:29;;;;;;;21.92;8.90;;;2.20;99.90;;;;;;5077578;28;20032;-62
2021/12/03 03:19:57;;;;;;;21.63;8.45;;;2.20;99.90;;;;;;5077551;28;20016;-62
2021/12/03 03:22:23;;;;;;;16.35;8.15;;;2.20;99.90;;;;;;5077441;28;20449;-63
2021/12/03 03:24:52;;;;;;;23.75;7.78;;;2.30;99.90;;;;;;5076684;28;20142;-63
2021/12/03 03:27:19;;;;;;;20.95;8.05;;;2.40;99.90;;;;;;5078230;28;20029;-63
2021/12/03 03:29:47;;;;;;;17.35;7.25;;;2.40;99.90;;;;;;5077326;28;20056;-62
2021/12/03 03:32:14;;;;;;;18.02;7.78;;;2.40;99.90;;;;;;5077235;28;20112;-62
2021/12/03 03:34:41;;;;;;;20.15;7.03;;;2.40;99.90;;;;;;5077235;28;20032;-62
2021/12/03 03:37:07;;;;;;;16.15;6.30;;;2.40;99.90;;;;;;5077230;28;20052;-62
2021/12/03 03:39:33;;;;;;;19.10;7.70;;;2.60;99.90;;;;;;5077470;28;20414;-64
2021/12/03 03:41:59;;;;;;;16.48;6.63;;;2.50;99.90;;;;;;5077200;28;20024;-62
2021/12/03 03:44:26;;;;;;;18.90;6.55;;;2.40;99.90;;;;;;5077110;28;20028;-64
2021/12/03 03:46:53;;;;;;;16.35;6.93;;;2.40;99.90;;;;;;5077102;28;20036;-63
2021/12/03 03:49:20;;;;;;;19.27;6.82;;;2.40;99.90;;;;;;5077052;28;20090;-63
2021/12/03 03:51:47;;;;;;;16.05;6.57;;;2.30;99.90;;;;;;5077348;28;20043;-63
2021/12/03 03:54:13;;;;;;;21.23;7.28;;;2.30;99.90;;;;;;5076969;28;20086;-63
2021/12/03 03:56:39;;;;;;;18.17;6.40;;;2.30;99.90;;;;;;5076975;28;20029;-63
2021/12/03 03:59:05;;;;;;;18.98;6.50;;;2.30;99.90;;;;;;5076971;28;20028;-63
2021/12/03 04:01:31;;;;;;;20.52;6.45;;;2.30;99.90;;;;;;5076949;28;20039;-63
2021/12/03 04:03:57;;;;;;;16.10;6.45;;;2.20;99.90;;;;;;5076994;28;20108;-63
2021/12/03 04:06:23;;;;;;;15.40;5.90;;;2.20;99.90;;;;;;5076863;28;20110;-63
2021/12/03 04:08:49;;;;;;;26.27;6.68;;;2.30;99.90;;;;;;5076951;28;20062;-63
2021/12/03 04:11:20;;;;;;;16.33;6.25;;;2.30;99.90;;;;;;5076685;28;20123;-65
2021/12/03 04:13:46;;;;;;;17.15;6.20;;;2.20;99.90;;;;;;5076864;28;20027;-62
2021/12/03 04:16:12;;;;;;;21.10;7.10;;;2.10;99.90;;;;;;5076526;28;20053;-63
2021/12/03 04:18:37;;;;;;;22.55;6.20;;;2.10;99.90;;;;;;5076748;28;20033;-64
2021/12/03 04:21:03;;;;;;;16.63;6.40;;;2.10;99.90;;;;;;5076745;28;20427;-63
2021/12/03 04:23:29;;;;;;;14.75;6.18;;;2.10;99.90;;;;;;5077291;28;20035;-63
2021/12/03 04:25:55;;;;;;;19.73;6.50;;;2.10;99.90;;;;;;5076719;28;20060;-63
2021/12/03 04:28:22;;;;;;;34.28;10.20;;;2.10;99.90;;;;;;5076879;28;20380;-63
2021/12/03 04:30:50;;;;;;;18.90;6.88;;;2.00;99.90;;;;;;5076261;28;20035;-62
2021/12/03 04:33:17;;;;;;;17.58;6.22;;;2.00;99.90;;;;;;5075862;28;20036;-62
2021/12/03 04:35:42;;;;;;;15.63;5.70;;;2.00;99.90;;;;;;5075638;28;20323;-63
2021/12/03 04:38:09;;;;;;;13.65;5.60;;;2.10;99.90;;;;;;5077140;28;20036;-63
2021/12/03 04:40:36;;;;;;;18.92;6.65;;;2.10;99.90;;;;;;5076413;28;20075;-62
2021/12/03 04:43:03;;;;;;;14.02;5.47;;;2.10;99.90;;;;;;5076580;28;20040;-62
2021/12/03 04:45:30;;;;;;;16.40;5.82;;;2.20;99.90;;;;;;5076679;28;20329;-63
2021/12/03 04:47:58;;;;;;;19.65;5.82;;;2.20;99.90;;;;;;5076500;28;20198;-63
2021/12/03 04:50:27;;;;;;;16.67;5.22;;;2.30;99.90;;;;;;5076446;28;20028;-63
2021/12/03 04:52:53;;;;;;;15.82;5.60;;;2.20;99.90;;;;;;5076523;28;20032;-63
2021/12/03 04:55:19;;;;;;;15.90;5.47;;;2.20;99.90;;;;;;5075563;28;20036;-63
2021/12/03 04:57:45;;;;;;;12.57;5.18;;;2.20;99.90;;;;;;5075669;28;20033;-62
2021/12/03 05:00:22;;;;;;;17.83;5.47;;;2.30;99.90;;;;;;5076418;28;20032;-62
2021/12/03 05:02:49;;;;;;;10.50;4.70;;;2.30;99.90;;;;;;5075733;28;20027;-62
2021/12/03 05:05:15;;;;;;;23.70;5.80;;;2.30;99.90;;;;;;5076266;28;20305;-62
2021/12/03 05:10:08;;;;;;;12.20;4.50;;;2.40;99.90;;;;;;5076327;28;20335;-63
2021/12/03 05:12:34;;;;;;;14.82;4.95;;;2.40;99.90;;;;;;5076364;28;20039;-63
2021/12/03 05:15:00;;;;;;;16.63;4.97;;;2.40;99.90;;;;;;5075942;28;20052;-62
2021/12/03 05:17:26;;;;;;;18.38;5.28;;;2.30;99.90;;;;;;5076271;28;20098;-62
2021/12/03 05:19:52;;;;;;;17.35;5.25;;;2.30;99.90;;;;;;5076295;28;20323;-63
2021/12/03 05:22:18;;;;;;;14.13;4.90;;;2.30;99.90;;;;;;5076345;28;20036;-63
2021/12/03 05:24:46;;;;;;;21.33;5.30;;;2.20;99.90;;;;;;5079113;28;20097;-62
2021/12/03 05:27:16;;;;;;;18.17;4.70;;;2.20;99.90;;;;;;5079802;28;20059;-62
2021/12/03 05:29:44;;;;;;;14.82;4.82;;;2.10;99.90;;;;;;5079864;28;20048;-62
2021/12/03 05:32:10;;;;;;;21.08;5.05;;;2.20;99.90;;;;;;5079584;28;20104;-62
2021/12/03 05:34:38;;;;;;;21.98;4.90;;;2.10;99.90;;;;;;5079586;28;20025;-62
2021/12/03 05:37:06;;;;;;;23.25;4.70;;;2.10;99.90;;;;;;5079476;28;20411;-62
2021/12/03 05:39:33;;;;;;;16.30;4.97;;;2.20;99.90;;;;;;5079520;28;20317;-62
2021/12/03 05:41:59;;;;;;;12.90;4.25;;;2.20;99.90;;;;;;5079451;28;20071;-62
2021/12/03 05:44:25;;;;;;;16.95;4.65;;;2.20;99.90;;;;;;5079341;28;20029;-61
2021/12/03 05:46:51;;;;;;;13.45;4.47;;;2.30;99.90;;;;;;5079405;28;20043;-62
2021/12/03 05:49:17;;;;;;;20.35;4.80;;;2.20;99.90;;;;;;5079212;28;20028;-61
2021/12/03 05:51:43;;;;;;;14.88;4.13;;;2.30;99.90;;;;;;5078447;28;20063;-61
2021/12/03 05:54:09;;;;;;;19.33;4.90;;;2.30;99.90;;;;;;5079278;28;20029;-62
2021/12/03 05:56:36;;;;;;;16.45;4.60;;;2.20;99.90;;;;;;5078336;28;20139;-61
2021/12/03 05:59:03;;;;;;;17.38;4.43;;;2.30;99.90;;;;;;5079159;28;20371;-61
2021/12/03 06:01:30;;;;;;;21.52;5.25;;;2.30;99.90;;;;;;5078928;28;20100;-62
2021/12/03 06:03:56;;;;;;;16.20;4.60;;;2.30;99.90;;;;;;5079017;28;20025;-62
2021/12/03 06:06:22;;;;;;;18.15;4.32;;;2.30;99.90;;;;;;5078930;28;20300;-62
2021/12/03 06:08:49;;;;;;;14.98;4.38;;;2.30;99.90;;;;;;5078152;28;20039;-62
2021/12/03 06:11:15;;;;;;;16.17;4.57;;;2.30;99.90;;;;;;5078117;28;20050;-62
2021/12/03 06:13:40;;;;;;;16.15;3.97;;;2.30;99.90;;;;;;5078949;28;20135;-63
2021/12/03 06:16:11;;;;;;;13.38;3.72;;;2.30;99.90;;;;;;5078568;28;20167;-61
2021/12/03 06:18:38;;;;;;;13.32;4.53;;;2.30;99.90;;;;;;5077955;28;20032;-61
2021/12/03 06:21:07;;;;;;;12.38;4.70;;;2.30;99.90;;;;;;5078587;28;20033;-62
2021/12/03 06:23:33;;;;;;;19.23;5.25;;;2.20;99.90;;;;;;5079085;28;20040;-61
2021/12/03 06:26:00;;;;;;;15.98;4.65;;;2.30;99.90;;;;;;5078448;28;20052;-62
2021/12/03 06:28:29;;;;;;;14.02;4.90;;;2.20;99.90;;;;;;5078421;28;20032;-63
2021/12/03 06:30:55;;;;;;;17.20;4.72;;;2.30;99.90;;;;;;5078591;28;20035;-62
2021/12/03 06:33:21;;;;;;;25.80;6.05;;;2.30;99.90;;;;;;5077570;28;20075;-61
2021/12/03 06:35:47;;;;;;;19.73;5.43;;;2.30;99.90;;;;;;5078350;28;20425;-62
2021/12/03 06:38:15;;;;;;;24.35;5.88;;;2.30;99.90;;;;;;5077965;28;20121;-62
2021/12/03 06:40:42;;;;;;;19.90;5.57;;;2.40;99.90;;;;;;5078405;28;20067;-65
2021/12/03 06:43:08;;;;;;;21.48;5.63;;;2.40;99.90;;;;;;5078272;28;20025;-62
2021/12/03 06:45:33;;;;;;;17.65;5.30;;;2.40;99.90;;;;;;5078572;28;20050;-63
2021/12/03 06:47:59;;;;;;;21.63;5.40;;;2.50;99.90;;;;;;5078216;28;20441;-62
2021/12/03 06:50:26;;;;;;;17.02;4.90;;;2.50;99.90;;;;;;5078115;28;20036;-64
2021/12/03 06:53:00;;;;;;;24.38;5.30;;;2.60;99.90;;;;;;5078134;28;20070;-64
2021/12/03 06:55:26;;;;;;;17.17;4.75;;;2.50;99.90;;;;;;5077973;28;20090;-65
2021/12/03 06:57:52;;;;;;;20.00;5.20;;;2.40;99.90;;;;;;5077138;28;20052;-64
2021/12/03 07:00:19;;;;;;;20.17;5.05;;;2.50;99.90;;;;;;5078053;28;20106;-63
2021/12/03 07:02:47;;;;;;;20.98;4.85;;;2.50;99.90;;;;;;5077736;28;20058;-64
2021/12/03 07:05:14;;;;;;;16.65;4.93;;;2.70;99.90;;;;;;5077756;28;20021;-64
2021/12/03 07:07:41;;;;;;;15.65;4.63;;;2.70;99.90;;;;;;5077667;28;20037;-63
2021/12/03 07:10:08;;;;;;;15.93;4.75;;;2.60;99.90;;;;;;5077591;28;20032;-64
2021/12/03 07:12:34;;;;;;;20.05;4.55;;;2.60;99.90;;;;;;5077184;28;20040;-64
2021/12/03 07:15:00;;;;;;;11.13;4.03;;;2.50;99.90;;;;;;5077290;28;20369;-64
2021/12/03 07:17:30;;;;;;;19.98;4.50;;;2.50;99.90;;;;;;5077499;28;20387;-64
2021/12/03 07:19:57;;;;;;;14.35;4.03;;;2.50;99.90;;;;;;5076637;28;20025;-64
2021/12/03 07:22:24;;;;;;;18.00;4.32;;;2.50;99.90;;;;;;5077231;28;20028;-61
2021/12/03 07:24:50;;;;;;;17.05;4.75;;;2.60;99.90;;;;;;5077842;28;20296;-64
2021/12/03 07:27:16;;;;;;;17.23;4.30;;;2.60;99.90;;;;;;5077330;28;20033;-64
2021/12/03 07:29:47;;;;;;;16.02;4.53;;;2.60;99.90;;;;;;5077141;28;20033;-64
2021/12/03 07:32:17;;;;;;;12.57;4.22;;;2.60;99.90;;;;;;5077386;28;20032;-63
2021/12/03 07:34:44;;;;;;;15.07;3.90;;;2.60;99.90;;;;;;5077026;28;20028;-62
2021/12/03 07:37:11;;;;;;;16.67;4.45;;;2.70;99.90;;;;;;5076883;28;20020;-62
2021/12/03 07:39:37;;;;;;;11.15;3.85;;;2.70;99.90;;;;;;5077016;28;20036;-62
2021/12/03 07:42:04;;;;;;;18.63;4.28;;;2.80;99.90;;;;;;5076206;28;20386;-62
2021/12/03 07:44:31;;;;;;;16.15;4.00;;;2.80;99.90;;;;;;5077129;28;20033;-62
2021/12/03 07:46:57;;;;;;;13.45;3.83;;;2.90;99.90;;;;;;5076460;28;20033;-62
2021/12/03 07:49:25;;;;;;;13.55;4.00;;;2.90;99.90;;;;;;5076740;28;20437;-62
2021/12/03 07:51:53;;;;;;;15.82;4.07;;;2.90;99.90;;;;;;5076824;28;20028;-62
2021/12/03 07:54:18;;;;;;;12.02;3.70;;;2.80;99.90;;;;;;5077104;28;20036;-62
2021/12/03 07:56:45;;;;;;;11.02;3.38;;;2.80;99.90;;;;;;5076028;28;20141;-63
2021/12/03 07:59:12;;;;;;;12.90;3.72;;;2.90;99.90;;;;;;5075780;28;20024;-63
2021/12/03 08:01:41;;;;;;;12.02;3.35;;;2.90;99.90;;;;;;5076534;28;20151;-62
2021/12/03 08:04:07;;;;;;;13.98;4.15;;;2.90;99.90;;;;;;5076727;28;20032;-62
2021/12/03 08:06:34;;;;;;;15.63;3.65;;;2.90;99.90;;;;;;5076760;28;20170;-63
2021/12/03 08:08:59;;;;;;;11.82;4.07;;;2.90;99.90;;;;;;5075600;28;20037;-63
2021/12/03 08:11:25;;;;;;;12.05;3.97;;;3.00;99.90;;;;;;5076614;28;20051;-63
2021/12/03 08:13:51;;;;;;;11.80;3.42;;;3.00;99.90;;;;;;5076100;28;20388;-63
2021/12/03 08:16:17;;;;;;;11.27;2.88;;;3.00;99.90;;;;;;5076211;28;20064;-63
2021/12/03 08:18:44;;;;;;;11.07;3.63;;;2.90;99.90;;;;;;5075709;28;20410;-63
2021/12/03 08:21:10;;;;;;;13.63;3.40;;;3.00;99.90;;;;;;5075820;28;20055;-63
2021/12/03 08:23:35;;;;;;;21.88;9.55;;;3.10;99.90;;;;;;5077000;28;20029;-62
2021/12/03 08:26:01;;;;;;;27.05;11.20;;;3.10;99.90;;;;;;5076410;28;20410;-62
2021/12/03 08:28:27;;;;;;;11.55;3.50;;;3.20;99.90;;;;;;5076358;28;20040;-63
2021/12/03 08:30:53;;;;;;;13.32;3.67;;;3.20;99.90;;;;;;5076428;28;20028;-61
2021/12/03 08:33:19;;;;;;;7.57;2.65;;;3.30;99.90;;;;;;5075656;28;20029;-65
2021/12/03 08:35:45;;;;;;;13.18;3.30;;;3.30;99.90;;;;;;5076350;28;20082;-64
2021/12/03 08:38:10;;;;;;;16.27;3.55;;;3.30;99.90;;;;;;5076374;28;20143;-64
2021/12/03 08:40:37;;;;;;;14.23;3.28;;;3.30;99.90;;;;;;5075672;28;20347;-63
2021/12/03 08:43:03;;;;;;;20.42;3.63;;;3.40;99.90;;;;;;5075619;28;20054;-64
2021/12/03 08:45:28;;;;;;;11.68;3.05;;;3.40;99.90;;;;;;5075668;28;20028;-63
2021/12/03 08:47:58;;;;;;;11.10;2.97;;;3.40;99.90;;;;;;5076104;28;20028;-63
2021/12/03 08:55:42;;;;;;;14.15;3.40;;;3.60;99.90;;;;;;5076119;28;20043;-65
2021/12/03 08:58:09;;;;;;;11.55;3.92;;;3.60;99.90;;;;;;5077510;28;20268;-65
2021/12/03 09:00:36;;;;;;;15.93;3.88;;;3.70;99.90;;;;;;5079799;28;20035;-64
2021/12/03 09:03:05;;;;;;;17.10;3.95;;;3.70;99.90;;;;;;5079386;28;20273;-64
2021/12/03 09:05:32;;;;;;;10.88;3.58;;;3.70;99.90;;;;;;5079869;28;20395;-64
2021/12/03 09:07:58;;;;;;;11.98;3.38;;;3.60;99.90;;;;;;5079950;28;20303;-65
2021/12/03 09:10:24;;;;;;;12.45;3.97;;;3.70;99.90;;;;;;5079632;28;20391;-65
2021/12/03 09:12:54;;;;;;;12.43;3.90;;;3.60;99.90;;;;;;5079714;28;20029;-66
2021/12/03 09:15:44;;;;;;;14.52;4.20;;;3.60;99.90;;;;;;5079589;28;20060;-65
2021/12/03 09:18:28;;;;;;;18.95;4.70;;;3.60;99.90;;;;;;5080487;28;20035;-66
2021/12/03 09:21:05;;;;;;;13.88;3.95;;;3.70;99.90;;;;;;5078901;28;20039;-65
2021/12/03 09:26:08;;;;;;;13.13;4.20;;;3.80;99.90;;;;;;5079478;28;20061;-66
2021/12/03 09:28:38;;;;;;;12.93;4.90;;;3.90;99.90;;;;;;5079669;28;20064;-65
2021/12/03 09:31:05;;;;;;;14.48;4.35;;;3.90;99.90;;;;;;5079542;28;20028;-65
2021/12/03 09:33:34;;;;;;;12.30;4.60;;;4.00;99.90;;;;;;5078771;28;20437;-65
2021/12/03 09:36:03;;;;;;;15.73;4.88;;;4.00;99.90;;;;;;5079287;28;20027;-64
2021/12/03 09:38:33;;;;;;;12.52;5.00;;;4.00;99.90;;;;;;5079245;28;20028;-65
2021/12/03 09:41:12;;;;;;;14.13;4.30;;;3.90;99.90;;;;;;5079335;28;20032;-64
2021/12/03 09:43:44;;;;;;;13.38;4.88;;;4.00;99.90;;;;;;5079887;28;20028;-64
2021/12/03 09:46:25;;;;;;;10.02;4.65;;;4.10;99.90;;;;;;5079152;28;20029;-63
2021/12/03 09:51:25;;;;;;;13.27;4.18;;;4.20;99.90;;;;;;5079343;28;20039;-64
2021/12/03 09:54:17;;;;;;;10.38;4.45;;;4.10;99.90;;;;;;5079295;28;20036;-62
2021/12/03 09:56:41;;;;;;;8.75;4.13;;;4.10;99.90;;;;;;5078387;28;20041;-63
2021/12/03 10:18:19;;;;;;;13.38;4.30;;;4.30;99.90;;;;;;5061628;28;20032;-63
2021/12/03 10:39:55;;;;;;;10.50;3.78;;;4.60;99.90;;;;;;5078039;28;20047;-63
2021/12/03 10:45:34;;;;;;;8.93;4.38;;;4.70;99.90;;;;;;5106336;28;19919;-63
2021/12/03 10:48:28;;;;;;;8.25;3.58;;;4.70;99.90;;;;;;5078022;28;20039;-65
2021/12/03 10:51:13;;;;;;;11.95;3.72;;;4.80;99.90;;;;;;5077388;28;20031;-64
2021/12/03 10:53:46;;;;;;;6.15;3.00;;;4.90;99.90;;;;;;5077977;28;20024;-63
2021/12/03 10:56:44;;;;;;;10.20;3.85;;;4.90;99.90;;;;;;5077269;28;20123;-63
2021/12/03 11:07:55;;;;;;;13.10;4.25;;;5.20;99.90;;;;;;5077950;28;20047;-64
2021/12/03 11:11:17;;;;;;;14.10;4.05;;;5.10;99.90;;;;;;5077650;28;20064;-65
2021/12/03 11:16:38;;;;;;;12.75;4.45;;;5.10;99.90;;;;;;5076892;28;20084;-62
2021/12/03 11:28:11;;;;;;;10.90;3.88;;;5.10;99.90;;;;;;5077410;28;20095;-64
2021/12/03 11:59:02;;;;;;;5.95;2.80;;;5.60;99.90;;;;;;5076179;28;20066;-65
2021/12/03 12:08:24;;;;;;;5.68;2.70;;;5.30;99.90;;;;;;5074536;28;20427;-63
2021/12/03 13:21:12;;;;;;;6.07;2.50;;;5.00;99.90;;;;;;5080037;28;20032;-67
2021/12/03 13:23:51;;;;;;;6.68;2.50;;;5.00;99.90;;;;;;5079606;28;20041;-65
2021/12/03 13:35:51;;;;;;;5.13;2.90;;;4.80;99.90;;;;;;5079620;28;20344;-69
2021/12/03 14:03:44;;;;;;;4.55;3.28;;;4.70;99.90;;;;;;5078572;28;20036;-65
2021/12/03 14:29:13;;;;;;;3.35;2.92;;;4.80;99.90;;;;;;5078692;28;20028;-64
2021/12/03 14:43:37;;;;;;;5.10;3.10;;;4.70;99.90;;;;;;5077542;28;20086;-65
2021/12/03 14:49:08;;;;;;;3.65;2.85;;;4.70;99.90;;;;;;5077215;28;19983;-66
2021/12/03 14:57:30;;;;;;;6.57;3.47;;;4.60;99.90;;;;;;5079548;28;20062;-63
2021/12/03 15:05:44;;;;;;;4.65;3.60;;;4.70;99.90;;;;;;5078209;28;20403;-62
2021/12/03 15:08:14;;;;;;;4.13;3.28;;;4.60;99.90;;;;;;5077188;28;20028;-63
2021/12/03 15:11:11;;;;;;;7.35;4.10;;;4.60;99.90;;;;;;5077013;28;20029;-62
2021/12/03 15:18:47;;;;;;;5.80;3.75;;;4.60;99.90;;;;;;5076911;28;20330;-63
2021/12/03 15:31:52;;;;;;;8.93;5.30;;;4.60;99.90;;;;;;5081362;28;20045;-63
2021/12/03 16:04:04;;;;;;;4.53;4.15;;;4.60;99.90;;;;;;5076935;28;20039;-61
2021/12/03 16:12:11;;;;;;;4.07;3.67;;;4.60;99.90;;;;;;5077127;28;20291;-63
2021/12/03 16:51:34;;;;;;;9.35;6.72;;;4.50;99.90;;;;;;5096870;28;20357;-64
2021/12/03 16:54:11;;;;;;;9.00;7.03;;;4.50;99.90;;;;;;5097097;28;20055;-62
2021/12/03 16:56:47;;;;;;;6.82;6.13;;;4.50;99.90;;;;;;5096023;28;20111;-63
2021/12/03 16:59:14;;;;;;;6.70;5.47;;;4.50;99.90;;;;;;5096073;28;20067;-64
2021/12/03 17:04:32;;;;;;;5.50;4.97;;;4.40;99.90;;;;;;5097025;28;20043;-61
2021/12/03 17:50:11;;;;;;;5.20;4.70;;;4.60;99.90;;;;;;5099642;28;20032;-65
2021/12/03 18:00:30;;;;;;;5.32;4.82;;;4.60;99.90;;;;;;5099468;28;20036;-61
2021/12/03 18:03:06;;;;;;;6.15;5.57;;;4.50;99.90;;;;;;5099766;28;20295;-64
2021/12/03 18:06:28;;;;;;;6.18;5.55;;;4.50;99.90;;;;;;5099518;28;20036;-62
2021/12/03 18:08:50;;;;;;;6.47;5.88;;;4.40;99.90;;;;;;5096276;28;20124;-64
2021/12/03 18:56:34;;;;;;;6.40;5.18;;;4.50;99.90;;;;;;5098304;28;20032;-61
2021/12/03 18:59:05;;;;;;;5.95;5.45;;;4.50;99.90;;;;;;5098546;28;20032;-61
2021/12/03 19:01:33;;;;;;;5.15;4.75;;;4.50;99.90;;;;;;5098305;28;20038;-62
2021/12/03 19:06:34;;;;;;;5.90;5.40;;;4.40;99.90;;;;;;5080580;28;20131;-61
2021/12/03 19:09:16;;;;;;;5.38;4.88;;;4.40;99.90;;;;;;5098220;28;20024;-61
2021/12/03 19:14:08;;;;;;;6.88;6.05;;;4.40;99.90;;;;;;5098258;28;20041;-61
2021/12/03 19:16:35;;;;;;;6.32;5.82;;;4.40;99.90;;;;;;5097050;28;20079;-61
2021/12/03 19:19:04;;;;;;;6.15;5.47;;;4.40;99.90;;;;;;5097983;28;20081;-65
2021/12/03 19:21:38;;;;;;;6.43;5.82;;;4.40;99.90;;;;;;5097877;28;20058;-63
2021/12/03 19:24:04;;;;;;;6.38;5.82;;;4.40;99.90;;;;;;5097973;28;20107;-63
2021/12/03 19:26:32;;;;;;;6.85;6.15;;;4.50;99.90;;;;;;5097846;28;20024;-63
2021/12/03 19:29:00;;;;;;;7.32;6.63;;;4.40;99.90;;;;;;5097791;28;20040;-62
2021/12/03 19:31:27;;;;;;;7.25;6.55;;;4.40;99.90;;;;;;5096984;28;20036;-61
2021/12/03 19:33:53;;;;;;;7.38;6.68;;;4.40;99.90;;;;;;5098034;28;20391;-62
2021/12/03 19:36:24;;;;;;;7.05;6.45;;;4.50;99.90;;;;;;5097655;28;20047;-62
2021/12/03 19:38:51;;;;;;;7.88;7.07;;;4.50;99.90;;;;;;5098301;28;20036;-63
2021/12/03 19:41:30;;;;;;;9.38;7.57;;;4.50;99.90;;;;;;5096890;28;20032;-63
2021/12/03 19:43:59;;;;;;;8.88;7.93;;;4.60;99.90;;;;;;5097481;28;20032;-62
2021/12/03 19:46:33;;;;;;;9.88;8.23;;;4.60;99.90;;;;;;5097414;28;20115;-65
2021/12/03 19:49:12;;;;;;;11.10;8.80;;;4.70;99.90;;;;;;5097487;28;20046;-64
2021/12/03 19:51:47;;;;;;;8.93;8.02;;;4.70;99.90;;;;;;5096765;28;20036;-66
2021/12/03 19:54:14;;;;;;;10.23;8.00;;;4.70;99.90;;;;;;5097587;28;20068;-66
2021/12/03 19:56:40;;;;;;;12.98;8.75;;;4.60;99.90;;;;;;5096755;28;20028;-66
2021/12/03 19:59:06;;;;;;;10.00;8.07;;;4.60;99.90;;;;;;5097583;28;20075;-66
2021/12/03 20:01:34;;;;;;;12.63;8.68;;;4.70;99.90;;;;;;5097591;28;20036;-65
2021/12/03 20:04:01;;;;;;;11.45;8.85;;;4.70;99.90;;;;;;5097354;28;20071;-66
2021/12/03 20:06:27;;;;;;;10.45;9.07;;;4.70;99.90;;;;;;5097463;28;20415;-66
2021/12/03 20:08:56;;;;;;;11.45;8.77;;;4.80;99.90;;;;;;5096717;28;20047;-66
2021/12/03 20:11:26;;;;;;;11.52;9.10;;;4.70;99.90;;;;;;5097096;28;20036;-66
2021/12/03 20:13:57;;;;;;;10.35;8.93;;;4.70;99.90;;;;;;5097805;28;20119;-64
2021/12/03 20:16:28;;;;;;;13.35;9.57;;;4.70;99.90;;;;;;5096871;28;20311;-64
2021/12/03 20:19:07;;;;;;;10.70;8.98;;;4.70;99.90;;;;;;5097536;28;20066;-65
2021/12/03 20:21:35;;;;;;;11.32;9.20;;;4.70;99.90;;;;;;5097413;28;20044;-65
2021/12/03 20:29:07;;;;;;;14.05;9.48;;;4.70;99.90;;;;;;5096323;28;20403;-67
2021/12/03 20:31:37;;;;;;;12.38;8.70;;;4.70;99.90;;;;;;5081024;28;20049;-66
2021/12/03 20:36:51;;;;;;;12.45;9.45;;;4.80;99.90;;;;;;5086075;28;20066;-65
2021/12/03 20:39:27;;;;;;;14.98;8.75;;;4.70;99.90;;;;;;5096095;28;20067;-66